Terminal Aerodrome Forecast
Issued by NWS

Home | Current Version | Previous Version | Text Only | Print | Product List | Glossary On
Versions: 1 2 3 4 5 6 7 8 9 10 11 12 13 14 15 16 17 18 19 20
000
FTUS46 KSTO 231100
TAFRBL
TAF
KRBL 231127Z 2312/2412 36010KT P6SM -RA OVC080
      TEMPO 2319/2323 4SM -RA OVC030
     FM232300 18007KT 5SM -RA OVC030
     FM240500 VRB05KT P6SM VCSH OVC060=

USA.gov is the U.S. government's official web portal to all federal, state and local government web resources and services.